Time;durP1;ratioP1;P1;durP2;ratioP2;P2;SDS_P1;SDS_P2;PMS_P1;PMS_P2;Temp;Humidity;BMP_temperature;BMP_pressure;BME280_temperature;BME280_humidity;BME280_pressure;Samples;Min_cycle;Max_cycle;Signal;HPM_P1;HPM_P2
2022/06/30 00:01:36;;;;;;;;;;;20.30;99.90;;;;;;5042795;28;19948;-66
2022/06/30 00:04:03;;;;;;;;;;;20.30;99.90;;;;;;5042831;28;20209;-67
2022/06/30 00:06:31;;;;;;;;;;;20.20;99.90;;;;;;5042757;28;19984;-67
2022/06/30 00:08:58;;;;;;;;;;;20.20;99.90;;;;;;5043260;28;19921;-67
2022/06/30 00:11:24;;;;;;;;;;;20.20;99.90;;;;;;5043136;28;19948;-67
2022/06/30 00:13:51;;;;;;;;;;;20.20;99.90;;;;;;5042543;28;19959;-67
2022/06/30 00:16:18;;;;;;;;;;;20.10;99.90;;;;;;5042479;28;19921;-67
2022/06/30 00:18:46;;;;;;;;;;;20.10;99.90;;;;;;5043176;28;20354;-66
2022/06/30 00:21:13;;;;;;;;;;;20.10;99.90;;;;;;5042438;28;19928;-66
2022/06/30 00:23:41;;;;;;;;;;;20.10;99.90;;;;;;5042147;28;19959;-67
2022/06/30 00:26:07;;;;;;;;;;;20.00;99.90;;;;;;5042848;28;19948;-66
2022/06/30 00:28:34;;;;;;;;;;;20.00;99.90;;;;;;5043052;28;19948;-67
2022/06/30 00:31:01;;;;;;;;;;;20.00;99.90;;;;;;5042695;28;19925;-67
2022/06/30 00:33:27;;;;;;;;;;;20.00;99.90;;;;;;5041638;28;19949;-67
2022/06/30 00:35:54;;;;;;;;;;;19.90;99.90;;;;;;5041662;28;19948;-67
2022/06/30 00:38:20;;;;;;;;;;;19.90;99.90;;;;;;5035026;28;20176;-66
2022/06/30 00:40:48;;;;;;;;;;;19.90;99.90;;;;;;5043203;28;19949;-67
2022/06/30 00:43:15;;;;;;;;;;;19.80;99.90;;;;;;5042297;28;19967;-67
2022/06/30 00:45:42;;;;;;;;;;;19.80;99.90;;;;;;5042835;28;19935;-66
2022/06/30 00:48:09;;;;;;;;;;;19.80;99.90;;;;;;5043138;28;19928;-66
2022/06/30 00:50:36;;;;;;;;;;;19.70;99.90;;;;;;5042710;28;19927;-66
2022/06/30 00:53:04;;;;;;;;;;;19.70;99.90;;;;;;5041443;28;20247;-66
2022/06/30 00:55:31;;;;;;;;;;;19.60;99.90;;;;;;5042561;28;19928;-66
2022/06/30 00:58:00;;;;;;;;;;;19.60;99.90;;;;;;5042552;28;19956;-66
2022/06/30 01:00:27;;;;;;;;;;;19.50;99.90;;;;;;5042619;28;19956;-66
2022/06/30 01:02:54;;;;;;;;;;;19.50;99.90;;;;;;5042097;28;20224;-66
2022/06/30 01:05:21;;;;;;;;;;;19.40;99.90;;;;;;5044528;28;20116;-66
2022/06/30 01:07:48;;;;;;;;;;;19.40;99.90;;;;;;5046525;28;19933;-66
2022/06/30 01:13:00;;;;;;;;;;;19.40;99.90;;;;;;5045836;28;19955;-66
2022/06/30 01:15:27;;;;;;;;;;;19.30;99.90;;;;;;5045747;28;19992;-66
2022/06/30 01:17:53;;;;;;;;;;;19.20;99.90;;;;;;5046281;28;20204;-66
2022/06/30 01:20:26;;;;;;;;;;;19.20;99.90;;;;;;5046042;28;20124;-66
2022/06/30 01:22:54;;;;;;;;;;;19.20;99.90;;;;;;5045267;28;19928;-66
2022/06/30 01:25:21;;;;;;;;;;;19.20;99.90;;;;;;5026370;28;20001;-66
2022/06/30 01:27:48;;;;;;;;;;;19.20;99.90;;;;;;5032648;28;19921;-66
2022/06/30 01:30:14;;;;;;;;;;;19.10;99.90;;;;;;5046030;28;19949;-66
2022/06/30 01:32:41;;;;;;;;;;;19.10;99.90;;;;;;5045356;28;19949;-66
2022/06/30 01:35:08;;;;;;;;;;;19.10;99.90;;;;;;5037922;28;19960;-66
2022/06/30 01:37:44;;;;;;;;;;;19.10;99.90;;;;;;5043747;28;19949;-67
2022/06/30 01:40:13;;;;;;;;;;;19.10;99.90;;;;;;5045815;28;19984;-66
2022/06/30 01:42:39;;;;;;;;;;;19.10;99.90;;;;;;5045173;28;19928;-66
2022/06/30 01:45:06;;;;;;;;;;;19.10;99.90;;;;;;5045913;28;19956;-66
2022/06/30 01:47:33;;;;;;;;;;;19.00;99.90;;;;;;5045550;28;19956;-66
2022/06/30 01:50:00;;;;;;;;;;;19.00;99.90;;;;;;5045475;28;20109;-66
2022/06/30 01:52:27;;;;;;;;;;;18.90;99.90;;;;;;5045215;28;20173;-66
2022/06/30 01:54:53;;;;;;;;;;;18.90;99.90;;;;;;5045754;28;20101;-67
2022/06/30 01:57:21;;;;;;;;;;;18.80;99.90;;;;;;5045280;28;20151;-66
2022/06/30 01:59:48;;;;;;;;;;;18.80;99.90;;;;;;5045658;28;19953;-66
2022/06/30 02:02:15;;;;;;;;;;;18.80;99.90;;;;;;5044940;28;19921;-66
2022/06/30 02:04:53;;;;;;;;;;;18.80;99.90;;;;;;5045210;28;19921;-66
2022/06/30 02:07:19;;;;;;;;;;;18.80;99.90;;;;;;5045187;28;20232;-66
2022/06/30 02:09:46;;;;;;;;;;;18.80;99.90;;;;;;5045448;28;19921;-67
2022/06/30 02:14:59;;;;;;;;;;;18.80;99.90;;;;;;5044927;28;19924;-66
2022/06/30 02:17:25;;;;;;;;;;;18.80;99.90;;;;;;5044939;28;19928;-66
2022/06/30 02:19:53;;;;;;;;;;;18.80;99.90;;;;;;5045236;28;19921;-66
2022/06/30 02:22:19;;;;;;;;;;;18.70;99.90;;;;;;5044597;28;19963;-66
2022/06/30 02:24:46;;;;;;;;;;;18.70;99.90;;;;;;5045060;28;19921;-66
2022/06/30 02:27:13;;;;;;;;;;;18.70;99.90;;;;;;5044932;28;19928;-66
2022/06/30 02:29:40;;;;;;;;;;;18.60;99.90;;;;;;5045316;28;19963;-66
2022/06/30 02:32:09;;;;;;;;;;;18.60;99.90;;;;;;5045188;28;19963;-66
2022/06/30 02:34:35;;;;;;;;;;;18.60;99.90;;;;;;5040951;28;19956;-66
2022/06/30 02:37:02;;;;;;;;;;;18.60;99.90;;;;;;5041236;28;19921;-66
2022/06/30 02:39:29;;;;;;;;;;;18.60;99.90;;;;;;5043925;28;20224;-66
2022/06/30 02:41:55;;;;;;;;;;;18.60;99.90;;;;;;5044512;28;20117;-66
2022/06/30 02:44:22;;;;;;;;;;;18.50;99.90;;;;;;5043945;28;19980;-66
2022/06/30 02:46:50;;;;;;;;;;;18.50;99.90;;;;;;5044614;28;20153;-66
2022/06/30 02:49:19;;;;;;;;;;;18.40;99.90;;;;;;5044010;28;19921;-66
2022/06/30 02:51:45;;;;;;;;;;;18.40;99.90;;;;;;5041998;28;19988;-66
2022/06/30 02:54:12;;;;;;;;;;;18.40;99.90;;;;;;5044267;28;19928;-66
2022/06/30 02:56:39;;;;;;;;;;;18.30;99.90;;;;;;5043934;28;19963;-66
2022/06/30 02:59:05;;;;;;;;;;;18.30;99.90;;;;;;5044305;28;20132;-66
2022/06/30 03:01:32;;;;;;;;;;;18.20;99.90;;;;;;5044410;28;19960;-66
2022/06/30 03:04:00;;;;;;;;;;;18.20;99.90;;;;;;5043525;28;19992;-66
2022/06/30 03:06:28;;;;;;;;;;;18.20;99.90;;;;;;5043981;28;20216;-66
2022/06/30 03:08:55;;;;;;;;;;;18.20;99.90;;;;;;5044236;28;19928;-66
2022/06/30 03:11:22;;;;;;;;;;;18.20;99.90;;;;;;5043617;28;19988;-66
2022/06/30 03:13:48;;;;;;;;;;;18.10;99.90;;;;;;5070083;23;19948;-92
2022/06/30 03:16:15;;;;;;;;;;;18.20;99.90;;;;;;5051300;28;19925;-92
2022/06/30 03:18:42;;;;;;;;;;;18.10;99.90;;;;;;5051321;28;19928;-91
2022/06/30 03:21:09;;;;;;;;;;;18.10;99.90;;;;;;5052825;28;19932;-93
2022/06/30 03:23:37;;;;;;;;;;;18.10;99.90;;;;;;5052184;28;19947;-92
2022/06/30 03:26:04;;;;;;;;;;;18.10;99.90;;;;;;5067753;23;19963;-67
2022/06/30 03:28:31;;;;;;;;;;;18.10;99.90;;;;;;5063404;28;19928;-68
2022/06/30 03:30:58;;;;;;;;;;;18.10;99.90;;;;;;5063842;28;20175;-67
2022/06/30 03:33:25;;;;;;;;;;;18.10;99.90;;;;;;5063000;28;19956;-68
2022/06/30 03:35:53;;;;;;;;;;;18.00;99.90;;;;;;5060914;28;19920;-67
2022/06/30 03:38:20;;;;;;;;;;;17.90;99.90;;;;;;5063571;28;19921;-68
2022/06/30 03:40:48;;;;;;;;;;;17.80;99.90;;;;;;5063143;28;19928;-69
2022/06/30 03:43:16;;;;;;;;;;;17.80;99.90;;;;;;5063106;28;19948;-70
2022/06/30 03:45:43;;;;;;;;;;;17.80;99.90;;;;;;5063819;28;19928;-69
2022/06/30 03:48:09;;;;;;;;;;;17.80;99.90;;;;;;5063659;28;20128;-68
2022/06/30 03:50:36;;;;;;;;;;;17.80;99.90;;;;;;5063475;28;20266;-67
2022/06/30 03:53:04;;;;;;;;;;;17.80;99.90;;;;;;5062683;28;20123;-69
2022/06/30 03:55:30;;;;;;;;;;;17.80;99.90;;;;;;5063577;28;19989;-68
2022/06/30 03:57:58;;;;;;;;;;;17.80;99.90;;;;;;5062744;28;19959;-70
2022/06/30 04:00:25;;;;;;;;;;;17.80;99.90;;;;;;5063584;28;19928;-67
2022/06/30 04:02:52;;;;;;;;;;;17.80;99.90;;;;;;5062703;28;19949;-68
2022/06/30 04:05:19;;;;;;;;;;;17.80;99.90;;;;;;5060900;28;20153;-67
2022/06/30 04:07:46;;;;;;;;;;;17.80;99.90;;;;;;5063319;28;19952;-68
2022/06/30 04:10:14;;;;;;;;;;;17.80;99.90;;;;;;5063315;28;19950;-68
2022/06/30 04:12:41;;;;;;;;;;;17.90;99.90;;;;;;5062540;28;19996;-68
2022/06/30 04:15:09;;;;;;;;;;;17.90;99.90;;;;;;5062766;28;19980;-69
2022/06/30 04:17:36;;;;;;;;;;;18.00;99.90;;;;;;5063183;28;19928;-68
2022/06/30 04:20:04;;;;;;;;;;;18.00;99.90;;;;;;5062104;28;19952;-67
2022/06/30 04:22:30;;;;;;;;;;;18.00;99.90;;;;;;5063223;28;19929;-68
2022/06/30 04:24:57;;;;;;;;;;;18.10;99.90;;;;;;5062232;28;19956;-68
2022/06/30 04:27:24;;;;;;;;;;;18.10;99.90;;;;;;5062983;28;19956;-71
2022/06/30 04:29:50;;;;;;;;;;;18.10;99.90;;;;;;5062592;28;19920;-68
2022/06/30 04:35:02;;;;;;;;;;;18.20;99.90;;;;;;5054489;28;19928;-69
2022/06/30 04:37:29;;;;;;;;;;;18.10;99.90;;;;;;5060621;28;19987;-68
2022/06/30 04:42:36;;;;;;;;;;;18.20;99.90;;;;;;5065533;28;19938;-68
2022/06/30 04:45:03;;;;;;;;;;;18.30;99.90;;;;;;5066531;28;19980;-68
2022/06/30 04:47:31;;;;;;;;;;;18.30;99.90;;;;;;5066840;28;19920;-68
2022/06/30 04:49:58;;;;;;;;;;;18.40;99.90;;;;;;5066658;28;19948;-68
2022/06/30 04:52:24;;;;;;;;;;;18.50;99.90;;;;;;5065468;28;19921;-68
2022/06/30 04:54:51;;;;;;;;;;;18.50;99.90;;;;;;5066631;28;19947;-68
2022/06/30 04:57:17;;;;;;;;;;;18.60;99.90;;;;;;5064387;28;19984;-68
2022/06/30 04:59:44;;;;;;;;;;;18.60;99.90;;;;;;5066605;28;19928;-67
2022/06/30 05:02:11;;;;;;;;;;;18.70;99.90;;;;;;5065273;28;19929;-68
2022/06/30 05:04:39;;;;;;;;;;;18.80;99.90;;;;;;5062644;28;19987;-68
2022/06/30 05:07:06;;;;;;;;;;;18.80;99.90;;;;;;5061526;28;20149;-68
2022/06/30 05:09:32;;;;;;;;;;;18.90;99.90;;;;;;5055236;28;19988;-68
2022/06/30 05:11:59;;;;;;;;;;;19.00;99.90;;;;;;5066175;28;19983;-70
2022/06/30 05:14:26;;;;;;;;;;;19.10;99.90;;;;;;5064373;28;19928;-68
2022/06/30 05:16:52;;;;;;;;;;;19.10;99.90;;;;;;5057418;28;19921;-68
2022/06/30 05:19:19;;;;;;;;;;;19.20;99.90;;;;;;5066710;28;19920;-68
2022/06/30 05:21:47;;;;;;;;;;;19.30;99.90;;;;;;5066625;28;19928;-68
2022/06/30 05:26:58;;;;;;;;;;;19.50;99.90;;;;;;5062884;28;20260;-68
2022/06/30 05:29:25;;;;;;;;;;;19.60;99.90;;;;;;5063254;28;19921;-68
2022/06/30 05:31:51;;;;;;;;;;;19.70;99.90;;;;;;5055876;28;19928;-68
2022/06/30 05:34:18;;;;;;;;;;;19.80;99.90;;;;;;5050810;28;20228;-68
2022/06/30 05:36:45;;;;;;;;;;;20.00;99.90;;;;;;5060848;28;19979;-68
2022/06/30 05:39:13;;;;;;;;;;;20.10;99.90;;;;;;5060059;28;19928;-68
2022/06/30 05:41:39;;;;;;;;;;;20.20;99.90;;;;;;5066159;28;19928;-67
2022/06/30 05:44:06;;;;;;;;;;;20.30;99.90;;;;;;5056155;28;19937;-71
2022/06/30 05:46:33;;;;;;;;;;;20.40;99.90;;;;;;5064558;28;19963;-70
2022/06/30 05:49:00;;;;;;;;;;;20.60;99.90;;;;;;5064387;28;19987;-67
2022/06/30 05:51:28;;;;;;;;;;;20.70;99.90;;;;;;5063037;28;19920;-69
2022/06/30 05:53:54;;;;;;;;;;;20.80;99.90;;;;;;5062609;28;19940;-68
2022/06/30 05:56:22;;;;;;;;;;;20.80;99.90;;;;;;5062525;28;19921;-68
2022/06/30 05:58:49;;;;;;;;;;;20.90;99.90;;;;;;5053346;28;19959;-68
2022/06/30 06:01:15;;;;;;;;;;;21.00;99.90;;;;;;5059232;28;19955;-68
2022/06/30 06:03:43;;;;;;;;;;;21.00;99.90;;;;;;5062238;28;19957;-68
2022/06/30 06:06:09;;;;;;;;;;;21.20;99.90;;;;;;5058503;28;19935;-69
2022/06/30 06:08:36;;;;;;;;;;;21.20;99.90;;;;;;5065114;28;19956;-68
2022/06/30 06:11:03;;;;;;;;;;;21.30;99.90;;;;;;5064680;28;19928;-70
2022/06/30 06:13:31;;;;;;;;;;;21.30;99.90;;;;;;5064216;28;19921;-69
2022/06/30 06:15:57;;;;;;;;;;;21.40;99.90;;;;;;5065222;28;19987;-68
2022/06/30 06:18:24;;;;;;;;;;;21.50;99.90;;;;;;5064616;28;19928;-68
2022/06/30 06:20:51;;;;;;;;;;;21.60;99.90;;;;;;5064534;28;19921;-68
2022/06/30 06:23:17;;;;;;;;;;;21.70;99.90;;;;;;5062812;28;19952;-68
2022/06/30 06:25:44;;;;;;;;;;;21.80;99.90;;;;;;5051902;28;19963;-67
2022/06/30 06:30:56;;;;;;;;;;;22.00;99.90;;;;;;5061802;28;19923;-68
2022/06/30 06:33:23;;;;;;;;;;;22.00;99.90;;;;;;5059668;28;19929;-68
2022/06/30 06:35:49;;;;;;;;;;;22.00;99.90;;;;;;5048908;28;19921;-68
2022/06/30 06:38:16;;;;;;;;;;;22.00;99.90;;;;;;5064958;28;19928;-69
2022/06/30 06:40:43;;;;;;;;;;;22.20;99.90;;;;;;5065063;28;19921;-69
2022/06/30 06:43:09;;;;;;;;;;;22.30;99.90;;;;;;5042619;28;19984;-69
2022/06/30 06:45:36;;;;;;;;;;;22.30;99.90;;;;;;5054562;28;19984;-68
2022/06/30 06:48:04;;;;;;;;;;;22.40;99.90;;;;;;5064594;28;19921;-68
2022/06/30 06:50:31;;;;;;;;;;;22.40;99.90;;;;;;5060531;28;20247;-68
2022/06/30 06:52:57;;;;;;;;;;;22.50;99.90;;;;;;5062788;28;19959;-68
2022/06/30 06:55:24;;;;;;;;;;;22.60;99.90;;;;;;5057100;28;19920;-68
2022/06/30 06:57:51;;;;;;;;;;;22.70;99.90;;;;;;5054072;28;19949;-68
2022/06/30 07:00:18;;;;;;;;;;;22.80;99.90;;;;;;5061484;28;19958;-67
2022/06/30 07:02:44;;;;;;;;;;;22.90;99.90;;;;;;5062451;28;19921;-68
2022/06/30 07:05:13;;;;;;;;;;;22.90;99.90;;;;;;5060613;28;19921;-69
2022/06/30 07:07:40;;;;;;;;;;;22.90;99.90;;;;;;5063964;28;20187;-68
2022/06/30 07:10:07;;;;;;;;;;;23.00;99.90;;;;;;5062797;28;19952;-68
2022/06/30 07:12:34;;;;;;;;;;;23.10;99.90;;;;;;5062231;28;19921;-68
2022/06/30 07:15:01;;;;;;;;;;;23.30;99.90;;;;;;5063438;28;19940;-69
2022/06/30 07:17:27;;;;;;;;;;;23.40;99.90;;;;;;5063921;28;19944;-68
2022/06/30 07:19:54;;;;;;;;;;;23.50;99.90;;;;;;5063712;28;19959;-68
2022/06/30 07:22:23;;;;;;;;;;;23.60;99.90;;;;;;5063505;28;19921;-69
2022/06/30 07:24:50;;;;;;;;;;;23.70;99.90;;;;;;5062884;28;20047;-68
2022/06/30 07:27:16;;;;;;;;;;;23.80;99.90;;;;;;5063503;28;19927;-68
2022/06/30 07:29:43;;;;;;;;;;;23.90;99.90;;;;;;5063350;28;20031;-69
2022/06/30 07:32:11;;;;;;;;;;;24.00;99.90;;;;;;5061008;28;19921;-70
2022/06/30 07:34:38;;;;;;;;;;;24.00;99.90;;;;;;5062780;28;20239;-68
2022/06/30 07:37:05;;;;;;;;;;;23.90;99.90;;;;;;5063357;28;19950;-68
2022/06/30 07:39:33;;;;;;;;;;;24.00;99.90;;;;;;5063343;28;19992;-69
2022/06/30 07:41:59;;;;;;;;;;;24.00;99.90;;;;;;5063673;28;19920;-70
2022/06/30 07:44:26;;;;;;;;;;;24.10;99.90;;;;;;5062578;28;19967;-68
2022/06/30 07:46:53;;;;;;;;;;;24.00;99.90;;;;;;5062985;28;19920;-67
2022/06/30 07:49:20;;;;;;;;;;;24.00;99.90;;;;;;5063206;28;19944;-68
2022/06/30 07:51:46;;;;;;;;;;;23.90;99.90;;;;;;5059788;28;20004;-68
2022/06/30 07:54:13;;;;;;;;;;;23.80;99.90;;;;;;5060015;28;20027;-70
2022/06/30 07:56:41;;;;;;;;;;;23.80;99.90;;;;;;5061984;28;19928;-69
2022/06/30 07:59:08;;;;;;;;;;;23.80;99.90;;;;;;5061791;28;20024;-69
2022/06/30 08:01:35;;;;;;;;;;;23.80;99.90;;;;;;5062648;28;19920;-68
2022/06/30 08:04:02;;;;;;;;;;;23.80;99.90;;;;;;5059279;28;20266;-70
2022/06/30 08:06:29;;;;;;;;;;;23.80;99.90;;;;;;5059520;28;19948;-68
2022/06/30 08:08:56;;;;;;;;;;;23.90;99.90;;;;;;5060980;28;19920;-68
2022/06/30 08:11:22;;;;;;;;;;;24.00;99.90;;;;;;5062040;28;19944;-69
2022/06/30 08:13:51;;;;;;;;;;;24.20;99.90;;;;;;5061432;28;19943;-68
2022/06/30 08:16:17;;;;;;;;;;;24.30;99.90;;;;;;5059877;28;19921;-68
2022/06/30 08:18:44;;;;;;;;;;;24.50;99.90;;;;;;5063165;28;20119;-68
2022/06/30 08:21:11;;;;;;;;;;;24.60;99.90;;;;;;5063100;28;19920;-68
2022/06/30 08:23:37;;;;;;;;;;;24.70;99.90;;;;;;5051005;28;19988;-68
2022/06/30 08:26:04;;;;;;;;;;;24.70;99.90;;;;;;5060790;28;20354;-68
2022/06/30 08:28:33;;;;;;;;;;;24.60;99.90;;;;;;5061547;28;19920;-68
2022/06/30 08:31:02;;;;;;;;;;;24.60;99.90;;;;;;5061091;28;20272;-68
2022/06/30 08:33:28;;;;;;;;;;;24.70;99.90;;;;;;5060923;28;19921;-68
2022/06/30 08:35:55;;;;;;;;;;;24.70;99.90;;;;;;5062600;28;19927;-69
2022/06/30 08:38:22;;;;;;;;;;;24.60;99.90;;;;;;5062316;28;20104;-68
2022/06/30 08:43:46;;;;;;;;;;;24.70;99.90;;;;;;5039573;28;19917;-68
2022/06/30 08:46:14;;;;;;;;;;;24.80;99.90;;;;;;5057397;28;20163;-68
2022/06/30 08:48:40;;;;;;;;;;;24.80;99.90;;;;;;5062503;28;19921;-68
2022/06/30 08:51:08;;;;;;;;;;;24.90;99.90;;;;;;5059867;28;20361;-68
2022/06/30 08:53:39;;;;;;;;;;;24.90;99.90;;;;;;5060938;28;19959;-68
2022/06/30 08:56:06;;;;;;;;;;;25.00;99.90;;;;;;5062184;28;19927;-69
2022/06/30 08:58:33;;;;;;;;;;;25.00;99.90;;;;;;5062204;28;19920;-68
2022/06/30 09:00:59;;;;;;;;;;;24.90;99.90;;;;;;5062160;28;19920;-68
2022/06/30 09:03:28;;;;;;;;;;;24.90;99.90;;;;;;5061528;28;20164;-68
2022/06/30 09:05:56;;;;;;;;;;;24.90;99.90;;;;;;5062268;28;19953;-68
2022/06/30 09:08:22;;;;;;;;;;;25.10;99.90;;;;;;5062427;28;20116;-68
2022/06/30 09:10:50;;;;;;;;;;;25.30;99.90;;;;;;5062014;28;19925;-68
2022/06/30 09:13:17;;;;;;;;;;;25.50;99.90;;;;;;5086551;23;19948;-92
2022/06/30 09:15:44;;;;;;;;;;;25.60;99.90;;;;;;5042281;28;19929;-91
2022/06/30 09:18:21;;;;;;;;;;;25.80;99.90;;;;;;5050336;22;19929;-67
2022/06/30 09:20:49;;;;;;;;;;;26.00;99.90;;;;;;5042142;28;19921;-66
2022/06/30 09:23:19;;;;;;;;;;;26.10;99.90;;;;;;5041594;28;19921;-70
2022/06/30 09:25:47;;;;;;;;;;;26.20;99.90;;;;;;5042018;28;19965;-66
2022/06/30 09:28:14;;;;;;;;;;;26.30;99.90;;;;;;5042841;28;20243;-66
2022/06/30 09:30:41;;;;;;;;;;;26.50;99.90;;;;;;5045520;28;19966;-66
2022/06/30 09:33:08;;;;;;;;;;;26.70;99.90;;;;;;5041077;28;20224;-66
2022/06/30 09:35:37;;;;;;;;;;;26.70;99.90;;;;;;5045734;28;19979;-66
2022/06/30 09:38:06;;;;;;;;;;;26.70;99.90;;;;;;5045529;28;19988;-66
2022/06/30 09:40:34;;;;;;;;;;;26.60;99.90;;;;;;5044505;28;19952;-66
2022/06/30 09:43:01;;;;;;;;;;;26.70;99.90;;;;;;5042901;28;19963;-66
2022/06/30 09:45:35;;;;;;;;;;;26.80;99.90;;;;;;5045375;28;19959;-66
2022/06/30 09:48:02;;;;;;;;;;;26.90;99.90;;;;;;5044717;28;20162;-66
2022/06/30 09:50:29;;;;;;;;;;;26.90;99.90;;;;;;5045870;28;20124;-66
2022/06/30 09:53:11;;;;;;;;;;;27.00;99.90;;;;;;5044641;28;19956;-66
2022/06/30 09:55:39;;;;;;;;;;;27.10;99.90;;;;;;5036013;28;19925;-66
2022/06/30 09:58:06;;;;;;;;;;;27.10;99.90;;;;;;5045382;28;19924;-66
2022/06/30 10:00:42;;;;;;;;;;;27.20;99.90;;;;;;5045138;28;19984;-66
2022/06/30 10:03:08;;;;;;;;;;;27.30;99.90;;;;;;5045314;28;19921;-66
2022/06/30 10:05:35;;;;;;;;;;;27.40;99.90;;;;;;5045216;28;19984;-68
2022/06/30 10:08:02;;;;;;;;;;;27.60;99.90;;;;;;5045466;28;19921;-66
2022/06/30 10:10:30;;;;;;;;;;;27.70;99.90;;;;;;5045338;28;19921;-65
2022/06/30 10:12:57;;;;;;;;;;;27.80;99.90;;;;;;5044516;28;19944;-66
2022/06/30 10:15:24;;;;;;;;;;;28.00;99.90;;;;;;5044606;28;19929;-66
2022/06/30 10:17:52;;;;;;;;;;;28.10;99.90;;;;;;5044736;28;19941;-66
2022/06/30 10:20:19;;;;;;;;;;;28.30;99.90;;;;;;5044844;28;20201;-66
2022/06/30 10:22:46;;;;;;;;;;;28.40;99.90;;;;;;5044264;28;19952;-66
2022/06/30 10:25:14;;;;;;;;;;;28.50;99.90;;;;;;5045188;28;19921;-66
2022/06/30 10:27:44;;;;;;;;;;;28.70;99.90;;;;;;5044150;28;20231;-68
2022/06/30 10:30:12;;;;;;;;;;;28.80;99.90;;;;;;5045055;28;20159;-66
2022/06/30 10:32:44;;;;;;;;;;;29.00;99.90;;;;;;5041842;28;19928;-66
2022/06/30 10:35:16;;;;;;;;;;;29.00;99.90;;;;;;5044747;28;19964;-66
2022/06/30 10:37:46;;;;;;;;;;;29.10;99.90;;;;;;5044800;28;19928;-66
2022/06/30 10:40:19;;;;;;;;;;;29.20;99.90;;;;;;5044714;28;20216;-66
2022/06/30 10:42:48;;;;;;;;;;;29.30;99.90;;;;;;5042101;28;19929;-66
2022/06/30 10:45:34;;;;;;;;;;;29.30;99.90;;;;;;5044590;28;19928;-66
2022/06/30 10:48:02;;;;;;;;;;;29.50;99.90;;;;;;5044475;28;19925;-66
2022/06/30 10:50:31;;;;;;;;;;;29.50;99.90;;;;;;5044813;28;19996;-66
2022/06/30 10:52:58;;;;;;;;;;;29.60;99.90;;;;;;5044011;28;19927;-66
2022/06/30 10:55:25;;;;;;;;;;;29.80;99.90;;;;;;5044921;28;20188;-66
2022/06/30 10:58:04;;;;;;;;;;;29.80;99.90;;;;;;5044695;28;19988;-66
2022/06/30 11:00:44;;;;;;;;;;;29.90;99.90;;;;;;5044756;28;19957;-66
2022/06/30 11:03:30;;;;;;;;;;;29.90;99.90;;;;;;5043867;28;19967;-66
2022/06/30 11:05:58;;;;;;;;;;;29.80;99.90;;;;;;5044179;28;20156;-66
2022/06/30 11:08:47;;;;;;;;;;;29.80;99.90;;;;;;5044230;28;19957;-66
2022/06/30 11:11:34;;;;;;;;;;;29.80;99.90;;;;;;5044436;28;19933;-66
2022/06/30 11:14:17;;;;;;;;;;;29.70;99.90;;;;;;5043682;28;19929;-66
2022/06/30 11:16:46;;;;;;;;;;;29.80;99.90;;;;;;5043632;28;19921;-66
2022/06/30 11:19:15;;;;;;;;;;;29.60;99.90;;;;;;5043781;28;19921;-66
2022/06/30 11:21:42;;;;;;;;;;;29.80;99.90;;;;;;5044080;28;20266;-66
2022/06/30 11:24:10;;;;;;;;;;;30.00;99.90;;;;;;5043689;28;19927;-66
2022/06/30 11:29:26;;;;;;;;;;;30.50;99.90;;;;;;5043890;28;20054;-66
2022/06/30 11:31:59;;;;;;;;;;;30.80;99.90;;;;;;5043799;28;19989;-66
2022/06/30 11:34:26;;;;;;;;;;;31.00;99.90;;;;;;5043507;28;20171;-66
2022/06/30 11:36:53;;;;;;;;;;;31.10;99.90;;;;;;5043840;28;19921;-66
2022/06/30 11:39:20;;;;;;;;;;;31.30;99.90;;;;;;5043949;28;19928;-66
2022/06/30 11:41:57;;;;;;;;;;;31.30;99.90;;;;;;5043662;28;19925;-66
2022/06/30 11:44:24;;;;;;;;;;;31.30;99.90;;;;;;5043093;28;19963;-66
2022/06/30 11:46:56;;;;;;;;;;;31.40;99.90;;;;;;5043550;28;19957;-66
2022/06/30 11:49:25;;;;;;;;;;;31.40;99.90;;;;;;5042792;28;19921;-66
2022/06/30 11:51:52;;;;;;;;;;;31.40;99.90;;;;;;5043376;28;19921;-66
2022/06/30 11:54:22;;;;;;;;;;;31.30;99.90;;;;;;5042636;28;19956;-66
2022/06/30 11:56:50;;;;;;;;;;;31.40;99.90;;;;;;5043323;28;20284;-66
2022/06/30 11:59:16;;;;;;;;;;;31.40;99.90;;;;;;5043535;28;19927;-68
2022/06/30 12:01:58;;;;;;;;;;;31.50;99.90;;;;;;5043595;28;19956;-67
2022/06/30 12:04:26;;;;;;;;;;;31.30;99.90;;;;;;5042701;28;19992;-66
2022/06/30 12:06:52;;;;;;;;;;;31.40;99.90;;;;;;5042946;28;19921;-67
2022/06/30 12:09:21;;;;;;;;;;;31.40;99.90;;;;;;5042529;28;20498;-66
2022/06/30 12:11:48;;;;;;;;;;;31.30;99.90;;;;;;5042584;28;19923;-66
2022/06/30 12:14:15;;;;;;;;;;;30.90;99.90;;;;;;5042630;28;19952;-66
2022/06/30 12:16:42;;;;;;;;;;;30.90;99.90;;;;;;5043421;28;19959;-67
2022/06/30 12:19:08;;;;;;;;;;;30.90;99.90;;;;;;5042958;28;19927;-67
2022/06/30 12:21:36;;;;;;;;;;;30.90;99.90;;;;;;5043356;28;19937;-67
2022/06/30 12:24:03;;;;;;;;;;;31.00;99.90;;;;;;5042638;28;20204;-66
2022/06/30 12:26:30;;;;;;;;;;;31.10;99.90;;;;;;5042862;28;19980;-67
2022/06/30 12:28:56;;;;;;;;;;;31.10;99.90;;;;;;5043393;28;19989;-67
2022/06/30 12:31:24;;;;;;;;;;;31.30;99.90;;;;;;5043030;28;19947;-67
2022/06/30 12:33:51;;;;;;;;;;;31.50;99.90;;;;;;5042278;28;20255;-67
2022/06/30 12:36:17;;;;;;;;;;;31.70;99.90;;;;;;5043118;28;19952;-66
2022/06/30 12:38:46;;;;;;;;;;;31.80;99.90;;;;;;5043264;28;19953;-67
2022/06/30 12:41:12;;;;;;;;;;;31.80;99.90;;;;;;5042276;28;19965;-67
2022/06/30 12:43:43;;;;;;;;;;;31.70;99.90;;;;;;5039920;28;20208;-67
2022/06/30 12:46:10;;;;;;;;;;;31.50;99.90;;;;;;5042987;28;19929;-67
2022/06/30 12:48:41;;;;;;;;;;;31.40;99.90;;;;;;5043234;28;19929;-67
2022/06/30 12:51:08;;;;;;;;;;;31.30;99.90;;;;;;5043290;28;19952;-67
2022/06/30 12:53:35;;;;;;;;;;;31.50;99.50;;;;;;5042439;28;19921;-67
2022/06/30 12:56:05;;;;;;;;;;;31.80;99.90;;;;;;5042942;28;19952;-67
2022/06/30 12:58:47;;;;;;;;;;;32.20;99.10;;;;;;5042806;28;19948;-67
2022/06/30 13:01:14;;;;;;;;;;;32.60;98.40;;;;;;5043857;28;20298;-67
2022/06/30 13:03:48;;;;;;;;;;;33.00;97.80;;;;;;5046352;28;19921;-67
2022/06/30 13:06:15;;;;;;;;;;;33.00;96.80;;;;;;5046677;28;19927;-67
2022/06/30 13:08:46;;;;;;;;;;;33.20;97.70;;;;;;5046900;28;19957;-67
2022/06/30 13:11:15;;;;;;;;;;;33.40;97.40;;;;;;5046483;28;19921;-67
2022/06/30 13:13:43;;;;;;;;;;;33.60;97.10;;;;;;5043387;28;20220;-67
2022/06/30 13:16:09;;;;;;;;;;;33.90;95.30;;;;;;5046511;28;20098;-67
2022/06/30 13:18:36;;;;;;;;;;;34.10;95.50;;;;;;5046462;28;19956;-67
2022/06/30 13:21:03;;;;;;;;;;;34.10;94.60;;;;;;5046564;28;19964;-67
2022/06/30 13:23:30;;;;;;;;;;;34.20;95.10;;;;;;5045721;28;19960;-67
2022/06/30 13:25:56;;;;;;;;;;;34.30;94.00;;;;;;5046378;28;19979;-67
2022/06/30 13:28:24;;;;;;;;;;;34.40;93.60;;;;;;5046467;28;20181;-67
2022/06/30 13:30:51;;;;;;;;;;;34.50;93.90;;;;;;5046159;28;20168;-68
2022/06/30 13:33:18;;;;;;;;;;;34.50;93.90;;;;;;5043296;28;19957;-67
2022/06/30 13:35:44;;;;;;;;;;;34.70;93.50;;;;;;5046003;28;19921;-67
2022/06/30 13:38:11;;;;;;;;;;;34.90;93.80;;;;;;5046205;28;19921;-67
2022/06/30 13:40:39;;;;;;;;;;;35.10;93.00;;;;;;5044954;28;20232;-67
2022/06/30 13:43:06;;;;;;;;;;;35.40;92.20;;;;;;5043115;28;20191;-68
2022/06/30 13:45:34;;;;;;;;;;;35.40;91.20;;;;;;5045965;28;20109;-67
2022/06/30 13:48:00;;;;;;;;;;;35.40;91.70;;;;;;5045705;28;20236;-67
2022/06/30 13:50:27;;;;;;;;;;;35.00;91.30;;;;;;5045865;28;20094;-67
2022/06/30 13:52:54;;;;;;;;;;;34.60;91.70;;;;;;5045192;28;20259;-68
2022/06/30 13:55:20;;;;;;;;;;;34.30;92.60;;;;;;5045603;28;20128;-67
2022/06/30 13:57:47;;;;;;;;;;;34.40;92.70;;;;;;5045841;28;20116;-67
2022/06/30 14:00:14;;;;;;;;;;;34.40;91.80;;;;;;5045541;28;20228;-68
2022/06/30 14:02:42;;;;;;;;;;;34.40;91.30;;;;;;5044939;28;19921;-67
2022/06/30 14:05:09;;;;;;;;;;;34.60;92.30;;;;;;5045412;28;19951;-67
2022/06/30 14:07:36;;;;;;;;;;;34.80;92.00;;;;;;5045474;28;19957;-68
2022/06/30 14:10:02;;;;;;;;;;;35.10;91.30;;;;;;5045646;28;19928;-68
2022/06/30 14:12:29;;;;;;;;;;;35.20;90.80;;;;;;5044327;28;19952;-67
2022/06/30 14:14:57;;;;;;;;;;;35.40;90.10;;;;;;5042868;28;19959;-68
2022/06/30 14:17:24;;;;;;;;;;;35.50;90.10;;;;;;5045443;28;19928;-68
2022/06/30 14:19:52;;;;;;;;;;;35.50;90.00;;;;;;5045438;28;19921;-67
2022/06/30 14:22:19;;;;;;;;;;;35.60;87.60;;;;;;5044547;28;19980;-68
2022/06/30 14:24:46;;;;;;;;;;;35.70;88.80;;;;;;5045247;28;20152;-68
2022/06/30 14:27:12;;;;;;;;;;;35.40;88.80;;;;;;5045059;28;20152;-67
2022/06/30 14:29:42;;;;;;;;;;;35.20;89.30;;;;;;5045108;28;19921;-67
2022/06/30 14:32:09;;;;;;;;;;;35.10;90.30;;;;;;5044726;28;19936;-67
2022/06/30 14:34:36;;;;;;;;;;;35.20;89.30;;;;;;5044395;28;20161;-67
2022/06/30 14:37:05;;;;;;;;;;;34.80;88.70;;;;;;5045183;28;19921;-67
2022/06/30 14:39:31;;;;;;;;;;;34.50;88.90;;;;;;5045158;28;19989;-67
2022/06/30 14:44:42;;;;;;;;;;;33.60;90.00;;;;;;5042512;28;19924;-67